createdAt,value
2022-11-02T00:01:53.148Z,50.18
2022-11-02T00:04:19.686Z,50.23
2022-11-02T00:06:46.134Z,49.25
2022-11-02T00:09:12.570Z,50.61
2022-11-02T00:11:39.413Z,50.13
2022-11-02T00:14:05.902Z,50.18
2022-11-02T00:16:33.363Z,49.68
2022-11-02T00:19:01.323Z,49.66
2022-11-02T00:21:28.047Z,50.36
2022-11-02T00:23:55.987Z,49.71
2022-11-02T00:26:22.550Z,50.88
2022-11-02T00:28:49.343Z,49.89
2022-11-02T00:31:15.864Z,50.47
2022-11-02T00:33:42.340Z,50.09
2022-11-02T00:36:09.055Z,50.43
2022-11-02T00:38:35.534Z,50.29
2022-11-02T00:41:02.380Z,49.83
2022-11-02T00:43:28.865Z,48.92
2022-11-02T00:45:55.377Z,48.85
2022-11-02T00:48:21.849Z,49.49
2022-11-02T00:50:48.336Z,49.79
2022-11-02T00:53:14.894Z,49.68
2022-11-02T00:55:41.508Z,50.47
2022-11-02T00:58:08.108Z,51.25
2022-11-02T01:00:34.801Z,52.38
2022-11-02T01:03:02.274Z,53.24
2022-11-02T01:05:29.430Z,55.16
2022-11-02T01:07:57.080Z,56.27
2022-11-02T01:10:23.792Z,56.57
2022-11-02T01:12:50.313Z,57.36
2022-11-02T01:15:16.811Z,56.81
2022-11-02T01:17:43.263Z,56.51
2022-11-02T01:20:10.465Z,56.56
2022-11-02T01:22:37.036Z,55.41
2022-11-02T01:25:04.194Z,55.11
2022-11-02T01:27:30.694Z,54.68
2022-11-02T01:29:57.512Z,53.63
2022-11-02T01:32:24.031Z,53.09
2022-11-02T01:34:50.509Z,54.45
2022-11-02T01:37:17.114Z,53.06
2022-11-02T01:39:43.596Z,53.14
2022-11-02T01:42:26.690Z,53.35
2022-11-02T01:44:53.117Z,52.87
2022-11-02T01:47:21.726Z,53.05
2022-11-02T01:49:52.618Z,53.96
2022-11-02T01:52:30.771Z,53.58
2022-11-02T01:55:16.392Z,54.38
2022-11-02T01:57:46.844Z,54.16
2022-11-02T02:00:15.677Z,53.29
2022-11-02T02:03:01.821Z,54.28
2022-11-02T02:05:29.819Z,54.59
2022-11-02T02:07:56.574Z,54.69
2022-11-02T02:10:23.151Z,53.64
2022-11-02T02:12:49.854Z,54.34
2022-11-02T02:15:16.427Z,54.60
2022-11-02T02:17:57.684Z,54.82
2022-11-02T02:20:55.401Z,55.40
2022-11-02T02:23:31.138Z,53.98
2022-11-02T02:26:35.413Z,53.15
2022-11-02T02:29:07.914Z,53.07
2022-11-02T02:31:40.851Z,52.33
2022-11-02T02:34:17.679Z,51.96
2022-11-02T02:39:27.653Z,52.83
2022-11-02T02:42:12.821Z,53.07
2022-11-02T02:44:42.738Z,53.47
2022-11-02T02:47:18.800Z,53.30
2022-11-02T02:49:50.367Z,53.90
2022-11-02T02:52:18.240Z,52.07
2022-11-02T02:54:46.738Z,52.65
2022-11-02T02:57:17.212Z,52.79
2022-11-02T02:59:45.458Z,52.84
2022-11-02T03:02:16.598Z,52.16
2022-11-02T03:04:43.230Z,53.98
2022-11-02T03:07:10.185Z,53.07
2022-11-02T03:10:22.409Z,53.81
2022-11-02T03:13:10.110Z,53.39
2022-11-02T03:15:47.256Z,52.86
2022-11-02T03:18:26.562Z,52.65
2022-11-02T03:21:05.104Z,52.75
2022-11-02T03:23:39.345Z,53.61
2022-11-02T03:26:29.430Z,53.71
2022-11-02T03:29:06.723Z,53.23
2022-11-02T03:31:46.659Z,52.59
2022-11-02T03:34:40.580Z,53.47
2022-11-02T03:37:19.525Z,53.84
2022-11-02T03:39:51.892Z,54.12
2022-11-02T03:42:21.309Z,53.88
2022-11-02T03:44:56.799Z,53.99
2022-11-02T03:47:23.991Z,53.32
2022-11-02T03:49:51.010Z,53.42
2022-11-02T03:52:21.916Z,53.14
2022-11-02T03:55:03.461Z,52.70
2022-11-02T03:57:35.241Z,53.78
2022-11-02T04:00:13.227Z,53.93
2022-11-02T04:02:41.889Z,53.30
2022-11-02T04:05:08.918Z,53.42
2022-11-02T04:07:58.528Z,53.96
2022-11-02T04:10:26.150Z,53.65
2022-11-02T04:13:11.249Z,54.67
2022-11-02T04:15:38.160Z,53.80
2022-11-02T04:18:23.259Z,53.72
2022-11-02T04:20:50.989Z,52.92
2022-11-02T04:23:36.540Z,54.36
2022-11-02T04:26:03.587Z,53.72
2022-11-02T04:28:30.302Z,52.44
2022-11-02T04:31:00.809Z,51.54
2022-11-02T04:33:33.050Z,52.30
2022-11-02T04:36:01.440Z,52.14
2022-11-02T04:38:40.560Z,52.98
2022-11-02T04:41:34.369Z,53.15
2022-11-02T04:44:01.167Z,52.61
2022-11-02T04:46:30.461Z,52.37
2022-11-02T04:48:57.206Z,52.82
2022-11-02T04:51:25.229Z,53.82
2022-11-02T04:53:53.437Z,54.04
2022-11-02T04:56:20.197Z,53.45
2022-11-02T04:58:51.665Z,53.37
2022-11-02T05:01:19.886Z,54.72
2022-11-02T05:03:50.503Z,53.60
2022-11-02T05:06:18.222Z,53.69
2022-11-02T05:08:44.689Z,53.65
2022-11-02T05:11:11.871Z,53.75
2022-11-02T05:13:40.286Z,53.95
2022-11-02T05:16:07.582Z,53.13
2022-11-02T05:18:34.068Z,53.74
2022-11-02T05:21:01.466Z,52.84
2022-11-02T05:23:29.064Z,52.61
2022-11-02T05:26:00.745Z,52.57
2022-11-02T05:28:28.126Z,53.10
2022-11-02T05:30:55.391Z,52.52
2022-11-02T05:33:26.624Z,52.51
2022-11-02T05:35:57.261Z,52.09
2022-11-02T05:38:24.431Z,52.59
2022-11-02T05:40:59.000Z,51.98
2022-11-02T05:43:26.361Z,51.93
2022-11-02T05:46:01.045Z,52.60
2022-11-02T05:48:30.535Z,53.35
2022-11-02T05:50:58.820Z,52.52
2022-11-02T05:53:26.762Z,53.00
2022-11-02T05:55:57.829Z,53.98
2022-11-02T05:58:24.607Z,52.09
2022-11-02T06:00:51.119Z,51.91
2022-11-02T06:03:17.861Z,51.50
2022-11-02T06:05:44.757Z,52.29
2022-11-02T06:08:11.361Z,52.95
2022-11-02T06:10:38.537Z,52.13
2022-11-02T06:13:05.286Z,52.46
2022-11-02T06:15:32.257Z,52.60
2022-11-02T06:17:58.721Z,53.21
2022-11-02T06:20:25.167Z,52.41
2022-11-02T06:22:51.720Z,53.71
2022-11-02T06:25:18.335Z,54.14
2022-11-02T06:27:53.213Z,53.66
2022-11-02T06:30:19.682Z,53.26
2022-11-02T06:32:48.224Z,52.42
2022-11-02T06:35:15.227Z,53.71
2022-11-02T06:38:19.828Z,52.92
2022-11-02T06:41:03.618Z,53.42
2022-11-02T06:43:30.544Z,53.52
2022-11-02T06:45:58.219Z,53.49
2022-11-02T06:48:28.714Z,53.50
2022-11-02T06:50:59.777Z,53.34
2022-11-02T06:53:26.566Z,52.71
2022-11-02T06:55:54.337Z,53.04
2022-11-02T06:58:23.040Z,52.75
2022-11-02T07:00:49.716Z,52.72
2022-11-02T07:03:16.738Z,52.36
2022-11-02T07:05:43.814Z,52.41
2022-11-02T07:08:10.235Z,52.54
2022-11-02T07:10:36.693Z,51.79
2022-11-02T07:13:03.697Z,51.61
2022-11-02T07:15:30.485Z,51.89
2022-11-02T07:17:57.025Z,51.62
2022-11-02T07:20:23.473Z,50.56
2022-11-02T07:22:57.355Z,51.55
2022-11-02T07:25:24.449Z,51.79
2022-11-02T07:27:51.062Z,50.56
2022-11-02T07:30:17.608Z,50.29
2022-11-02T07:32:45.553Z,51.26
2022-11-02T07:35:13.327Z,50.69
2022-11-02T07:37:40.586Z,50.18
2022-11-02T07:40:09.051Z,50.97
2022-11-02T07:42:35.831Z,50.82
2022-11-02T07:45:02.406Z,50.63
2022-11-02T07:47:30.160Z,50.00
2022-11-02T07:49:59.031Z,50.02
2022-11-02T07:52:25.849Z,49.80
2022-11-02T07:54:52.311Z,51.12
2022-11-02T07:57:18.890Z,50.04
2022-11-02T07:59:45.318Z,49.09
2022-11-02T08:02:13.550Z,50.39
2022-11-02T08:04:43.844Z,50.52
2022-11-02T08:07:11.583Z,48.88
2022-11-02T08:09:38.073Z,50.06
2022-11-02T08:12:04.636Z,50.01
2022-11-02T08:14:31.205Z,50.14
2022-11-02T08:16:58.088Z,48.73
2022-11-02T08:19:24.523Z,48.15
2022-11-02T08:21:51.339Z,48.89
2022-11-02T08:24:17.782Z,48.51
2022-11-02T08:26:45.930Z,50.11
2022-11-02T08:29:13.303Z,49.79
2022-11-02T08:31:39.809Z,49.66
2022-11-02T08:34:06.411Z,50.11
2022-11-02T08:36:35.750Z,48.75
2022-11-02T08:39:02.297Z,48.24
2022-11-02T08:41:28.762Z,48.56
2022-11-02T08:43:55.201Z,48.81
2022-11-02T08:46:21.859Z,48.49
2022-11-02T08:48:48.360Z,49.66
2022-11-02T08:51:14.958Z,47.17
2022-11-02T08:53:42.331Z,47.63
2022-11-02T08:56:10.197Z,48.01
2022-11-02T08:58:36.673Z,47.96
2022-11-02T09:01:03.111Z,47.54
2022-11-02T09:03:29.997Z,46.90
2022-11-02T09:05:58.995Z,44.88
2022-11-02T09:08:26.261Z,43.67
2022-11-02T09:10:53.221Z,42.86
2022-11-02T09:13:25.175Z,44.31
2022-11-02T09:15:57.343Z,43.02
2022-11-02T09:18:24.379Z,43.45
2022-11-02T09:20:51.388Z,46.10
2022-11-02T09:23:19.256Z,47.68
2022-11-02T09:25:45.837Z,46.50
2022-11-02T09:28:13.096Z,46.90
2022-11-02T09:30:39.556Z,41.99
2022-11-02T09:33:06.972Z,35.50
2022-11-02T09:35:39.433Z,32.02
2022-11-02T09:38:05.945Z,35.87
2022-11-02T09:40:36.989Z,38.62
2022-11-02T09:43:41.005Z,38.29
2022-11-02T09:46:10.834Z,34.32
2022-11-02T09:48:46.476Z,33.35
2022-11-02T09:51:19.129Z,30.82
2022-11-02T09:54:23.254Z,27.68
2022-11-02T09:56:50.852Z,27.02
2022-11-02T09:59:18.201Z,26.18
2022-11-02T10:02:18.230Z,25.77
2022-11-02T10:05:06.327Z,25.79
2022-11-02T10:07:50.979Z,31.23
2022-11-02T10:10:33.784Z,27.23
2022-11-02T10:13:27.228Z,25.25
2022-11-02T10:16:00.660Z,26.96
2022-11-02T10:18:29.827Z,29.34
2022-11-02T10:20:59.012Z,33.68
2022-11-02T10:23:30.668Z,37.96
2022-11-02T10:25:57.238Z,34.28
2022-11-02T10:28:27.662Z,31.16
2022-11-02T10:30:54.604Z,27.62
2022-11-02T10:33:27.012Z,25.71
2022-11-02T10:36:17.381Z,22.15
2022-11-02T10:38:53.212Z,21.09
2022-11-02T10:41:37.655Z,23.76
2022-11-02T10:44:27.462Z,19.54
2022-11-02T10:47:16.300Z,18.66
2022-11-02T10:50:27.886Z,19.65
2022-11-02T10:52:54.498Z,22.07
2022-11-02T10:55:51.708Z,19.29
2022-11-02T10:58:20.547Z,20.62
2022-11-02T11:00:48.244Z,20.24
2022-11-02T11:03:16.566Z,21.05
2022-11-02T11:06:03.708Z,24.01
2022-11-02T11:08:42.115Z,20.61
2022-11-02T11:11:19.312Z,19.00
2022-11-02T11:16:43.339Z,22.66
2022-11-02T11:19:40.523Z,22.59
2022-11-02T11:22:25.974Z,23.59
2022-11-02T11:24:52.985Z,26.32
2022-11-02T11:27:21.228Z,32.39
2022-11-02T11:29:50.469Z,34.42
2022-11-02T11:32:19.741Z,32.21
2022-11-02T11:34:53.915Z,28.64
2022-11-02T11:37:20.596Z,26.94
2022-11-02T11:39:54.744Z,22.51
2022-11-02T11:42:24.462Z,24.76
2022-11-02T11:45:01.622Z,27.14
2022-11-02T11:47:34.695Z,26.74
2022-11-02T11:50:14.104Z,22.74
2022-11-02T11:53:16.716Z,22.21
2022-11-02T11:55:48.970Z,24.71
2022-11-02T11:58:21.458Z,26.91
2022-11-02T12:01:10.570Z,23.97
2022-11-02T12:04:00.836Z,21.08
2022-11-02T12:06:54.705Z,23.58
2022-11-02T12:09:44.645Z,22.36
2022-11-02T12:12:18.738Z,26.20
2022-11-02T12:15:07.288Z,30.59
2022-11-02T12:17:53.930Z,31.29
2022-11-02T12:20:48.881Z,33.15
2022-11-02T12:23:47.699Z,33.46
2022-11-02T12:26:30.567Z,33.80
2022-11-02T12:29:31.005Z,33.89
2022-11-02T12:32:11.127Z,35.24
2022-11-02T12:38:19.118Z,35.61
2022-11-02T12:41:05.185Z,35.13
2022-11-02T12:43:41.798Z,34.25
2022-11-02T12:46:26.582Z,34.19
2022-11-02T12:49:14.790Z,33.62
2022-11-02T12:52:04.387Z,32.46
2022-11-02T12:54:48.136Z,33.76
2022-11-02T12:57:17.698Z,32.82
2022-11-02T12:59:45.028Z,33.10
2022-11-02T13:02:53.795Z,33.45
2022-11-02T13:05:23.779Z,33.63
2022-11-02T13:08:02.555Z,35.31
2022-11-02T13:10:59.337Z,34.32
2022-11-02T13:13:46.452Z,34.05
2022-11-02T13:16:15.145Z,33.53
2022-11-02T13:18:51.034Z,34.43
2022-11-02T13:21:24.318Z,34.43
2022-11-02T13:23:55.050Z,34.57
2022-11-02T13:26:41.478Z,34.65
2022-11-02T13:29:28.924Z,33.97
2022-11-02T13:32:05.894Z,33.01
2022-11-02T13:34:40.336Z,32.87
2022-11-02T13:37:13.452Z,33.29
2022-11-02T13:39:44.092Z,34.31
2022-11-02T13:42:13.541Z,34.57
2022-11-02T13:44:55.127Z,33.89
2022-11-02T13:47:59.232Z,34.56
2022-11-02T13:50:27.392Z,33.95
2022-11-02T13:52:59.549Z,33.81
2022-11-02T13:55:41.352Z,34.68
2022-11-02T13:58:22.705Z,34.55
2022-11-02T14:00:49.292Z,33.91
2022-11-02T14:03:23.431Z,34.76
2022-11-02T14:05:56.628Z,34.59
2022-11-02T14:08:39.366Z,35.68
2022-11-02T14:11:24.735Z,35.29
2022-11-02T14:13:54.440Z,35.68
2022-11-02T14:16:44.326Z,36.87
2022-11-02T14:19:48.930Z,36.38
2022-11-02T14:22:17.199Z,37.70
2022-11-02T14:24:43.838Z,36.56
2022-11-02T14:27:10.323Z,36.53
2022-11-02T14:29:45.563Z,37.05
2022-11-02T14:32:21.200Z,38.37
2022-11-02T14:35:25.502Z,37.80
2022-11-02T14:38:27.051Z,38.04
2022-11-02T14:41:16.504Z,37.21
2022-11-02T14:44:01.879Z,37.18
2022-11-02T14:46:47.007Z,36.53
2022-11-02T14:49:25.429Z,35.87
2022-11-02T14:52:15.228Z,36.16
2022-11-02T14:55:24.249Z,36.91
2022-11-02T14:58:00.552Z,36.68
2022-11-02T15:00:33.937Z,37.72
2022-11-02T15:03:00.513Z,36.83
2022-11-02T15:05:31.780Z,38.59
2022-11-02T15:08:25.237Z,37.39
2022-11-02T15:10:51.723Z,37.93
2022-11-02T15:13:21.478Z,38.79
2022-11-02T15:15:51.050Z,40.04
2022-11-02T15:18:31.615Z,39.26
2022-11-02T15:21:10.496Z,40.05
2022-11-02T15:24:04.443Z,40.11
2022-11-02T15:26:43.109Z,40.01
2022-11-02T15:29:19.714Z,39.78
2022-11-02T15:31:55.379Z,39.36
2022-11-02T15:34:28.620Z,40.54
2022-11-02T15:36:55.801Z,39.92
2022-11-02T15:39:22.354Z,40.18
2022-11-02T15:42:01.790Z,41.12
2022-11-02T15:44:55.387Z,41.08
2022-11-02T15:47:34.391Z,41.57
2022-11-02T15:50:35.647Z,42.01
2022-11-02T15:53:24.011Z,41.96
2022-11-02T15:56:17.288Z,41.62
2022-11-02T15:59:09.869Z,41.75
2022-11-02T16:01:36.546Z,41.94
2022-11-02T16:04:06.023Z,41.78
2022-11-02T16:06:37.112Z,42.15
2022-11-02T16:09:36.402Z,42.25
2022-11-02T16:12:19.401Z,42.50
2022-11-02T16:14:53.156Z,42.90
2022-11-02T16:17:27.234Z,42.74
2022-11-02T16:20:09.424Z,43.17
2022-11-02T16:22:36.539Z,43.19
2022-11-02T16:25:12.229Z,43.35
2022-11-02T16:27:42.143Z,42.88
2022-11-02T16:30:18.103Z,43.35
2022-11-02T16:32:45.853Z,43.42
2022-11-02T16:35:14.349Z,43.74
2022-11-02T16:37:40.935Z,43.82
2022-11-02T16:40:08.325Z,43.82
2022-11-02T16:42:34.831Z,44.15
2022-11-02T16:45:04.051Z,44.98
2022-11-02T16:47:41.132Z,45.64
2022-11-02T16:50:21.873Z,45.17
2022-11-02T16:53:04.646Z,44.50
2022-11-02T16:55:43.729Z,44.85
2022-11-02T16:58:20.161Z,44.90
2022-11-02T17:00:57.795Z,44.58
2022-11-02T17:03:29.813Z,44.84
2022-11-02T17:06:00.990Z,44.91
2022-11-02T17:08:29.124Z,45.23
2022-11-02T17:10:58.213Z,45.17
2022-11-02T17:13:26.923Z,45.12
2022-11-02T17:15:55.668Z,45.34
2022-11-02T17:18:22.053Z,45.06
2022-11-02T17:20:49.271Z,45.38
2022-11-02T17:23:34.148Z,45.35
2022-11-02T17:26:24.072Z,45.61
2022-11-02T17:29:02.311Z,46.41
2022-11-02T17:31:35.967Z,46.95
2022-11-02T17:34:10.204Z,46.84
2022-11-02T17:36:43.867Z,46.71
2022-11-02T17:39:15.082Z,46.52
2022-11-02T17:42:01.775Z,46.76
2022-11-02T17:44:28.298Z,46.88
2022-11-02T17:46:55.379Z,46.77
2022-11-02T17:49:22.135Z,47.07
2022-11-02T17:51:48.658Z,46.67
2022-11-02T17:54:15.188Z,47.10
2022-11-02T17:56:41.837Z,46.63
2022-11-02T17:59:08.621Z,46.58
2022-11-02T18:01:35.659Z,47.64
2022-11-02T18:04:02.280Z,46.89
2022-11-02T18:06:29.925Z,46.18
2022-11-02T18:09:11.528Z,47.42
2022-11-02T18:11:38.110Z,47.88
2022-11-02T18:14:05.024Z,47.77
2022-11-02T18:16:32.091Z,47.01
2022-11-02T18:18:58.627Z,46.89
2022-11-02T18:21:25.127Z,47.51
2022-11-02T18:23:51.673Z,47.46
2022-11-02T18:26:18.129Z,47.38
2022-11-02T18:28:44.754Z,48.05
2022-11-02T18:31:11.753Z,48.79
2022-11-02T18:33:38.213Z,47.85
2022-11-02T18:36:06.768Z,47.61
2022-11-02T18:38:33.438Z,47.43
2022-11-02T18:41:27.456Z,47.96
2022-11-02T18:43:59.218Z,48.03
2022-11-02T18:46:30.973Z,47.34
2022-11-02T18:48:57.887Z,46.83
2022-11-02T18:51:24.756Z,46.61
2022-11-02T18:53:58.669Z,46.35
2022-11-02T18:56:25.660Z,46.45
2022-11-02T18:58:53.153Z,46.96
2022-11-02T19:01:21.731Z,46.45
2022-11-02T19:03:53.069Z,47.73
2022-11-02T19:06:38.600Z,46.90
2022-11-02T19:09:18.151Z,46.84
2022-11-02T19:12:05.908Z,47.87
2022-11-02T19:14:37.585Z,46.86
2022-11-02T19:17:05.790Z,47.53
2022-11-02T19:19:32.583Z,47.00
2022-11-02T19:21:59.444Z,46.90
2022-11-02T19:24:25.952Z,47.34
2022-11-02T19:26:52.479Z,48.01
2022-11-02T19:29:19.468Z,47.12
2022-11-02T19:31:46.104Z,47.15
2022-11-02T19:34:12.597Z,47.05
2022-11-02T19:36:39.125Z,46.61
2022-11-02T19:39:08.260Z,46.39
2022-11-02T19:41:35.172Z,48.04
2022-11-02T19:44:01.692Z,46.76
2022-11-02T19:46:28.405Z,46.34
2022-11-02T19:48:57.220Z,46.32
2022-11-02T19:51:26.498Z,45.70
2022-11-02T19:53:55.529Z,47.15
2022-11-02T19:56:22.577Z,47.46
2022-11-02T19:58:50.848Z,47.72
2022-11-02T20:01:17.382Z,47.18
2022-11-02T20:03:46.170Z,46.94
2022-11-02T20:06:15.331Z,46.87
2022-11-02T20:08:42.081Z,47.58
2022-11-02T20:11:10.805Z,47.66
2022-11-02T20:13:39.279Z,48.73
2022-11-02T20:16:07.744Z,48.35
2022-11-02T20:18:35.754Z,48.47
2022-11-02T20:21:28.230Z,48.40
2022-11-02T20:23:58.784Z,49.09
2022-11-02T20:26:31.391Z,48.25
2022-11-02T20:28:59.741Z,48.01
2022-11-02T20:31:29.427Z,48.11
2022-11-02T20:33:56.645Z,48.86
2022-11-02T20:36:23.140Z,48.41
2022-11-02T20:38:51.493Z,48.04
2022-11-02T20:41:19.730Z,48.38
2022-11-02T20:43:48.299Z,48.93
2022-11-02T20:49:14.374Z,48.73
2022-11-02T20:51:48.304Z,47.85
2022-11-02T20:54:14.737Z,48.47
2022-11-02T20:56:41.305Z,48.00
2022-11-02T20:59:07.740Z,47.62
2022-11-02T21:01:34.978Z,47.25
2022-11-02T21:04:02.036Z,47.92
2022-11-02T21:06:28.940Z,47.18
2022-11-02T21:08:55.414Z,46.94
2022-11-02T21:11:40.489Z,47.60
2022-11-02T21:14:06.921Z,46.86
2022-11-02T21:16:33.951Z,46.46
2022-11-02T21:19:03.359Z,47.31
2022-11-02T21:21:29.889Z,48.34
2022-11-02T21:23:56.384Z,47.79
2022-11-02T21:26:22.912Z,47.34
2022-11-02T21:28:49.379Z,46.62
2022-11-02T21:31:19.389Z,46.56
2022-11-02T21:33:47.532Z,47.35
2022-11-02T21:36:15.561Z,48.42
2022-11-02T21:38:45.086Z,47.86
2022-11-02T21:41:19.323Z,47.86
2022-11-02T21:43:45.892Z,48.44
2022-11-02T21:46:12.469Z,48.41
2022-11-02T21:48:39.011Z,48.46
2022-11-02T21:51:09.566Z,48.78
2022-11-02T21:53:38.533Z,48.70
2022-11-02T21:56:10.655Z,48.42
2022-11-02T21:58:42.870Z,48.15
2022-11-02T22:01:33.848Z,49.02
2022-11-02T22:04:00.835Z,49.76
2022-11-02T22:06:31.324Z,49.78
2022-11-02T22:08:59.324Z,49.66
2022-11-02T22:11:29.697Z,48.41
2022-11-02T22:13:58.160Z,48.61
2022-11-02T22:16:25.866Z,47.68
2022-11-02T22:18:54.643Z,49.15
2022-11-02T22:21:21.810Z,48.65
2022-11-02T22:23:48.941Z,50.30
2022-11-02T22:26:20.766Z,49.61
2022-11-02T22:28:48.204Z,48.66
2022-11-02T22:31:18.747Z,49.57
2022-11-02T22:33:46.909Z,49.21
2022-11-02T22:36:15.166Z,49.61
2022-11-02T22:38:48.374Z,49.31
2022-11-02T22:41:15.964Z,49.58
2022-11-02T22:43:43.086Z,50.29
2022-11-02T22:46:10.170Z,48.64
2022-11-02T22:48:36.875Z,50.83
2022-11-02T22:51:05.903Z,50.14
2022-11-02T22:53:32.627Z,50.00
2022-11-02T22:56:04.490Z,50.79
2022-11-02T22:58:32.842Z,50.30
2022-11-02T23:00:59.669Z,49.37
2022-11-02T23:03:26.328Z,50.19
2022-11-02T23:05:53.171Z,50.84
2022-11-02T23:08:19.789Z,49.53
2022-11-02T23:11:05.268Z,50.22
2022-11-02T23:13:31.793Z,50.10
2022-11-02T23:16:21.221Z,49.95
2022-11-02T23:19:11.068Z,49.64
2022-11-02T23:21:39.926Z,50.03
2022-11-02T23:24:25.412Z,50.00
2022-11-02T23:26:51.895Z,49.97
2022-11-02T23:29:37.007Z,49.46
2022-11-02T23:32:22.312Z,49.15
2022-11-02T23:35:07.253Z,49.17
2022-11-02T23:37:33.812Z,50.13
2022-11-02T23:40:00.412Z,50.03
2022-11-02T23:42:26.900Z,49.48
2022-11-02T23:44:53.412Z,49.37
2022-11-02T23:47:19.973Z,49.50
2022-11-02T23:49:46.427Z,49.37
2022-11-02T23:52:32.246Z,48.90
2022-11-02T23:55:17.433Z,49.30
2022-11-02T23:57:43.929Z,48.89
